Time;durP1;ratioP1;P1;durP2;ratioP2;P2;SDS_P1;SDS_P2;PMS_P1;PMS_P2;Temp;Humidity;BMP_temperature;BMP_pressure;BME280_temperature;BME280_humidity;BME280_pressure;Samples;Min_cycle;Max_cycle;Signal;HPM_P1;HPM_P2
2023/10/13 00:00:42;;;;;;;2.17;0.98;;;14.30;99.90;;;;;;5007636;28;20064;-65
2023/10/13 00:03:14;;;;;;;0.47;0.47;;;14.30;99.90;;;;;;4997089;28;20046;-65
2023/10/13 00:05:41;;;;;;;1.08;0.85;;;14.30;99.90;;;;;;5003618;28;20050;-65
2023/10/13 00:08:09;;;;;;;0.35;0.35;;;14.30;99.90;;;;;;4995294;28;20046;-65
2023/10/13 00:10:35;;;;;;;0.08;0.08;;;14.40;99.90;;;;;;5006895;28;20458;-65
2023/10/13 00:13:11;;;;;;;0.43;0.43;;;14.40;99.90;;;;;;5001536;28;20124;-65
2023/10/13 00:16:03;;;;;;;0.10;0.10;;;14.40;99.90;;;;;;5008225;28;20041;-65
2023/10/13 00:18:41;;;;;;;0.65;0.63;;;14.40;99.90;;;;;;5008518;28;20045;-65
2023/10/13 00:21:13;;;;;;;0.17;0.17;;;14.40;99.90;;;;;;5000930;28;20065;-65
2023/10/13 00:23:53;;;;;;;0.00;0.00;;;14.50;99.90;;;;;;5006278;28;20386;-65
2023/10/13 00:26:29;;;;;;;0.20;0.20;;;14.60;99.90;;;;;;4996155;28;20034;-65
2023/10/13 00:31:42;;;;;;;0.22;0.22;;;14.70;99.90;;;;;;5007141;28;20049;-65
2023/10/13 00:34:15;;;;;;;0.68;0.68;;;14.70;99.90;;;;;;4995868;28;20137;-65
2023/10/13 00:39:28;;;;;;;0.73;0.73;;;14.90;99.90;;;;;;5003353;28;20065;-65
2023/10/13 00:41:59;;;;;;;0.98;0.85;;;14.90;99.90;;;;;;4994795;28;20046;-65
2023/10/13 00:44:44;;;;;;;3.22;1.23;;;14.90;99.90;;;;;;5008176;28;20049;-65
2023/10/13 00:47:16;;;;;;;0.20;0.20;;;15.00;99.90;;;;;;5004058;28;20487;-65
2023/10/13 00:49:47;;;;;;;0.43;0.43;;;15.10;99.90;;;;;;5001776;28;20100;-65
2023/10/13 00:52:15;;;;;;;1.50;1.40;;;15.10;99.90;;;;;;5009199;28;20052;-65
2023/10/13 00:54:45;;;;;;;0.43;0.43;;;15.20;99.90;;;;;;5011799;28;20390;-65
2023/10/13 00:57:26;;;;;;;0.75;0.75;;;15.20;99.90;;;;;;5006194;28;20025;-65
2023/10/13 00:59:56;;;;;;;1.30;0.77;;;15.30;99.90;;;;;;5004607;28;20494;-65
2023/10/13 01:02:37;;;;;;;0.80;0.63;;;15.30;99.90;;;;;;5007885;28;20414;-65
2023/10/13 01:05:11;;;;;;;0.63;0.57;;;15.30;99.90;;;;;;5010244;28;20052;-65
2023/10/13 01:07:37;;;;;;;;;;;15.40;99.90;;;;;;5001676;28;20046;-65
2023/10/13 01:10:04;;;;;;;0.30;0.30;;;15.30;99.90;;;;;;5011168;28;19926;-65
2023/10/13 01:12:30;;;;;;;0.68;0.55;;;15.40;99.90;;;;;;5019603;28;20125;-65
2023/10/13 01:14:57;;;;;;;0.00;0.00;;;15.40;99.90;;;;;;5009649;28;20096;-65
2023/10/13 01:17:23;;;;;;;0.20;0.20;;;15.50;99.90;;;;;;4996655;28;20045;-65
2023/10/13 01:19:49;;;;;;;0.30;0.30;;;15.50;99.90;;;;;;5001822;28;20050;-65
2023/10/13 01:22:14;;;;;;;2.50;1.10;;;15.50;99.90;;;;;;5017175;28;20049;-65
2023/10/13 01:24:40;;;;;;;0.00;0.00;;;15.60;99.90;;;;;;5008468;28;20054;-66
2023/10/13 01:27:25;;;;;;;1.60;0.85;;;15.60;99.90;;;;;;5003387;28;20042;-66
2023/10/13 01:29:55;;;;;;;0.88;0.60;;;15.70;99.90;;;;;;5000008;28;20512;-66
2023/10/13 01:32:22;;;;;;;0.22;0.22;;;15.70;99.90;;;;;;5007092;28;20056;-65
2023/10/13 01:34:54;;;;;;;0.20;0.20;;;15.70;99.90;;;;;;5000758;28;20057;-65
2023/10/13 01:37:20;;;;;;;0.10;0.10;;;15.70;99.90;;;;;;4999223;28;20368;-66
2023/10/13 01:39:49;;;;;;;0.13;0.13;;;15.70;99.90;;;;;;5009277;28;20129;-66
2023/10/13 01:42:24;;;;;;;3.15;0.95;;;15.70;99.90;;;;;;4998071;28;20137;-65
2023/10/13 01:44:51;;;;;;;0.25;0.20;;;15.80;99.90;;;;;;5001539;28;20120;-66
2023/10/13 01:47:17;;;;;;;0.10;0.10;;;15.80;99.90;;;;;;4999095;28;20042;-66
2023/10/13 01:49:46;;;;;;;0.00;0.00;;;15.80;99.90;;;;;;5010290;28;20041;-66
2023/10/13 01:52:15;;;;;;;0.10;0.10;;;15.80;99.90;;;;;;5010963;28;20045;-66
2023/10/13 01:54:50;;;;;;;0.63;0.63;;;15.70;99.90;;;;;;5002204;28;20041;-65
2023/10/13 01:57:17;;;;;;;0.20;0.20;;;15.80;99.90;;;;;;4996067;28;20041;-66
2023/10/13 01:59:47;;;;;;;0.10;0.10;;;15.80;99.90;;;;;;5007555;28;20077;-66
2023/10/13 02:02:14;;;;;;;0.17;0.17;;;15.80;99.90;;;;;;5009829;28;20073;-65
2023/10/13 02:04:49;;;;;;;0.25;0.25;;;15.80;99.90;;;;;;5004010;28;20038;-65
2023/10/13 02:07:16;;;;;;;0.25;0.25;;;15.80;99.90;;;;;;5008270;28;20413;-65
2023/10/13 02:09:45;;;;;;;1.65;0.45;;;15.80;99.90;;;;;;5010555;28;20049;-66
2023/10/13 02:12:10;;;;;;;0.32;0.32;;;15.80;99.90;;;;;;5005503;28;20045;-66
2023/10/13 02:14:39;;;;;;;0.70;0.65;;;15.80;99.90;;;;;;5002982;28;20125;-65
2023/10/13 02:17:16;;;;;;;0.25;0.25;;;15.80;99.90;;;;;;5007987;28;20042;-65
2023/10/13 02:19:46;;;;;;;0.10;0.10;;;15.80;99.90;;;;;;5009963;28;20092;-66
2023/10/13 02:22:24;;;;;;;0.25;0.25;;;15.80;99.90;;;;;;5007280;28;20089;-65
2023/10/13 02:24:52;;;;;;;5.70;2.13;;;15.80;99.90;;;;;;4998752;28;20983;-66
2023/10/13 02:27:17;;;;;;;0.38;0.38;;;15.90;99.90;;;;;;5005312;28;20041;-65
2023/10/13 02:29:46;;;;;;;0.10;0.10;;;15.80;99.90;;;;;;5007608;28;20048;-66
2023/10/13 02:32:21;;;;;;;0.00;0.00;;;15.90;99.90;;;;;;5001560;28;20161;-66
2023/10/13 02:34:47;;;;;;;0.55;0.55;;;15.90;99.90;;;;;;5016423;28;20050;-65
2023/10/13 02:37:13;;;;;;;0.32;0.20;;;15.90;99.90;;;;;;5000793;28;20060;-66
2023/10/13 02:39:41;;;;;;;0.35;0.35;;;15.90;99.90;;;;;;5001424;28;21021;-66
2023/10/13 02:42:08;;;;;;;0.10;0.10;;;15.90;99.90;;;;;;5005461;28;20060;-66
2023/10/13 02:44:36;;;;;;;0.10;0.10;;;15.90;99.90;;;;;;5004962;28;20087;-66
2023/10/13 02:47:05;;;;;;;0.30;0.30;;;15.90;99.90;;;;;;5008695;28;20383;-66
2023/10/13 02:49:34;;;;;;;5.20;1.40;;;15.90;99.90;;;;;;4999212;28;20084;-66
2023/10/13 02:52:05;;;;;;;0.15;0.15;;;15.90;99.90;;;;;;5004011;28;20120;-66
2023/10/13 02:54:35;;;;;;;0.32;0.32;;;15.90;99.90;;;;;;5005406;28;20513;-66
2023/10/13 02:57:03;;;;;;;0.08;0.08;;;15.90;99.90;;;;;;5001477;28;20096;-66
2023/10/13 02:59:40;;;;;;;0.20;0.20;;;15.90;99.90;;;;;;4999517;28;20038;-66
2023/10/13 03:02:25;;;;;;;0.00;0.00;;;16.00;99.90;;;;;;5008319;28;20113;-66
2023/10/13 03:04:52;;;;;;;0.30;0.30;;;16.00;99.90;;;;;;5002906;28;20077;-66
2023/10/13 03:07:23;;;;;;;0.70;0.70;;;16.00;99.90;;;;;;4997174;28;20490;-66
2023/10/13 03:09:52;;;;;;;0.45;0.45;;;16.00;99.90;;;;;;5004216;28;20061;-66
2023/10/13 03:12:19;;;;;;;0.20;0.20;;;16.00;99.90;;;;;;4996814;28;20038;-66
2023/10/13 03:14:47;;;;;;;1.48;1.38;;;16.10;99.90;;;;;;5007806;28;20559;-66
2023/10/13 03:17:18;;;;;;;0.50;0.50;;;16.10;99.90;;;;;;5007936;28;20042;-66
2023/10/13 03:19:51;;;;;;;0.10;0.10;;;16.10;99.90;;;;;;5016396;28;20050;-66
2023/10/13 03:22:18;;;;;;;0.70;0.70;;;16.10;99.90;;;;;;4999076;28;20060;-65
2023/10/13 03:24:47;;;;;;;0.90;0.90;;;16.10;99.90;;;;;;5004519;28;20046;-65
2023/10/13 03:27:23;;;;;;;1.05;0.98;;;16.10;99.90;;;;;;4996183;28;20189;-66
2023/10/13 03:29:56;;;;;;;0.35;0.35;;;16.10;99.90;;;;;;4997613;28;20077;-66
2023/10/13 03:32:22;;;;;;;1.10;0.90;;;16.10;99.90;;;;;;5008747;28;20512;-66
2023/10/13 03:37:38;;;;;;;2.08;0.82;;;16.10;99.90;;;;;;5002758;28;20064;-66
2023/10/13 03:43:06;;;;;;;2.63;1.65;;;16.10;99.90;;;;;;5002684;28;20088;-66
2023/10/13 03:45:38;;;;;;;0.82;0.60;;;16.10;99.90;;;;;;5003286;28;20117;-66
2023/10/13 03:51:10;;;;;;;0.63;0.63;;;16.10;99.90;;;;;;5002937;28;20128;-66
2023/10/13 03:53:52;;;;;;;0.20;0.20;;;16.10;99.90;;;;;;5006795;28;20037;-66
2023/10/13 03:56:26;;;;;;;0.43;0.43;;;16.10;99.90;;;;;;5007626;28;20119;-66
2023/10/13 03:58:53;;;;;;;0.55;0.55;;;16.10;99.90;;;;;;5001723;28;20056;-66
2023/10/13 04:01:25;;;;;;;0.22;0.22;;;16.00;99.90;;;;;;5001280;28;20042;-66
2023/10/13 04:03:57;;;;;;;4.55;2.17;;;16.10;99.90;;;;;;5004976;28;20073;-66
2023/10/13 04:17:33;;;;;;;0.52;0.52;;;16.00;99.90;;;;;;5003271;28;20062;-66
2023/10/13 04:26:03;;;;;;;0.08;0.08;;;16.10;99.90;;;;;;5006683;28;20056;-65
2023/10/13 04:39:09;;;;;;;0.85;0.65;;;16.10;99.90;;;;;;5002227;28;20146;-66
2023/10/13 04:49:28;;;;;;;0.65;0.65;;;16.20;99.90;;;;;;5000304;28;20129;-66
2023/10/13 04:54:53;;;;;;;0.73;0.73;;;16.20;99.90;;;;;;5006197;28;20105;-67
2023/10/13 06:30:24;;;;;;;0.13;0.13;;;16.00;99.90;;;;;;4995835;28;20474;-67
2023/10/13 06:32:50;;;;;;;0.47;0.47;;;16.10;99.90;;;;;;4998413;28;20042;-67
2023/10/13 06:35:22;;;;;;;0.10;0.10;;;16.20;99.90;;;;;;5004287;28;20042;-65
2023/10/13 06:37:48;;;;;;;0.08;0.08;;;16.20;99.90;;;;;;4999583;28;20097;-66
2023/10/13 06:40:32;;;;;;;1.45;0.50;;;16.30;99.90;;;;;;5000411;28;20034;-66
2023/10/13 06:43:12;;;;;;;0.28;0.28;;;16.30;99.90;;;;;;5007807;28;20054;-67
2023/10/13 06:45:41;;;;;;;0.20;0.20;;;16.30;99.90;;;;;;4996319;28;20039;-66
2023/10/13 06:48:11;;;;;;;0.20;0.20;;;16.30;99.90;;;;;;5003527;28;20053;-66
2023/10/13 06:50:41;;;;;;;0.20;0.20;;;16.30;99.90;;;;;;5007789;28;20155;-66
2023/10/13 06:53:07;;;;;;;0.00;0.00;;;16.30;99.90;;;;;;5003124;28;20053;-67
2023/10/13 06:55:39;;;;;;;0.45;0.45;;;16.30;99.90;;;;;;4995660;28;20027;-67
2023/10/13 06:58:06;;;;;;;2.50;1.70;;;16.30;99.90;;;;;;5008447;28;20064;-67
2023/10/13 07:00:37;;;;;;;0.00;0.00;;;16.30;99.90;;;;;;4998309;28;20125;-66
2023/10/13 07:03:17;;;;;;;1.50;1.10;;;16.30;99.90;;;;;;5006822;28;20046;-66
2023/10/13 07:05:43;;;;;;;0.63;0.63;;;16.30;99.90;;;;;;5006968;28;20049;-66
2023/10/13 07:08:14;;;;;;;0.00;0.00;;;16.30;99.90;;;;;;5006591;28;20050;-66
2023/10/13 07:11:05;;;;;;;0.55;0.55;;;16.30;99.90;;;;;;5020625;28;20038;-66
2023/10/13 07:13:31;;;;;;;0.10;0.10;;;16.30;99.90;;;;;;5004711;28;20153;-65
2023/10/13 07:16:12;;;;;;;1.48;0.57;;;16.20;99.90;;;;;;4997041;28;20133;-66
2023/10/13 07:18:42;;;;;;;0.00;0.00;;;16.20;99.90;;;;;;5018707;28;20406;-66
2023/10/13 07:21:10;;;;;;;1.55;1.00;;;16.20;99.90;;;;;;5000204;28;20125;-66
2023/10/13 07:23:37;;;;;;;0.05;0.05;;;16.20;99.90;;;;;;4999315;28;20498;-66
2023/10/13 07:26:05;;;;;;;0.10;0.10;;;16.20;99.90;;;;;;5002925;28;20030;-66
2023/10/13 07:28:35;;;;;;;1.85;0.75;;;16.20;99.90;;;;;;5007222;28;20062;-66
2023/10/13 07:33:30;;;;;;;0.52;0.45;;;16.10;99.90;;;;;;5005959;28;20053;-66
2023/10/13 07:36:01;;;;;;;1.45;1.20;;;16.10;99.90;;;;;;5007336;28;20061;-66
2023/10/13 07:38:30;;;;;;;3.85;1.30;;;16.10;99.90;;;;;;4997572;28;20046;-66
2023/10/13 07:41:06;;;;;;;3.40;1.95;;;16.00;99.90;;;;;;5001767;28;20037;-67
2023/10/13 07:43:32;;;;;;;0.20;0.20;;;16.00;99.90;;;;;;5007306;28;20054;-66
2023/10/13 07:45:59;;;;;;;1.65;1.40;;;16.00;99.90;;;;;;5020082;28;20046;-66
2023/10/13 07:48:25;;;;;;;0.25;0.25;;;16.00;99.90;;;;;;5000437;28;20041;-66
2023/10/13 07:51:05;;;;;;;0.03;0.03;;;16.00;99.90;;;;;;5001710;28;20056;-64
2023/10/13 07:53:34;;;;;;;2.95;1.50;;;16.00;99.90;;;;;;4998701;28;20069;-66
2023/10/13 07:56:05;;;;;;;3.92;1.30;;;16.00;99.90;;;;;;5005869;28;20049;-66
2023/10/13 07:58:34;;;;;;;0.80;0.80;;;16.00;99.90;;;;;;5008614;28;20046;-66
2023/10/13 08:01:06;;;;;;;1.23;1.15;;;16.00;99.90;;;;;;5000030;28;20513;-66
2023/10/13 08:08:39;;;;;;;1.15;0.55;;;16.10;99.90;;;;;;4996969;28;20100;-66
2023/10/13 08:11:25;;;;;;;2.28;1.75;;;16.10;99.90;;;;;;4999211;28;20046;-66
2023/10/13 08:13:56;;;;;;;4.82;2.08;;;16.10;99.90;;;;;;4999318;28;20057;-66
2023/10/13 08:16:22;;;;;;;1.55;1.02;;;16.10;99.90;;;;;;5002307;28;20050;-66
2023/10/13 08:18:52;;;;;;;0.40;0.40;;;16.20;99.90;;;;;;5006103;28;20482;-66
2023/10/13 08:21:25;;;;;;;4.38;1.75;;;16.20;99.90;;;;;;5006271;28;20065;-66
2023/10/13 08:26:30;;;;;;;1.35;1.27;;;16.30;99.90;;;;;;5003159;28;20049;-66
2023/10/13 08:32:14;;;;;;;0.70;0.70;;;16.30;99.90;;;;;;4991452;28;20062;-66
2023/10/13 08:47:53;;;;;;;7.20;1.08;;;16.40;99.90;;;;;;5003389;28;20516;-66
2023/10/13 08:50:47;;;;;;;0.55;0.55;;;16.50;99.90;;;;;;4996685;28;20478;-66
2023/10/13 08:53:26;;;;;;;0.10;0.10;;;16.50;99.90;;;;;;4992134;28;20133;-67
2023/10/13 09:09:58;;;;;;;1.58;1.42;;;16.80;99.90;;;;;;5004077;28;20054;-67
2023/10/13 09:15:17;;;;;;;0.10;0.10;;;17.10;99.90;;;;;;5005593;28;20060;-66
2023/10/13 09:17:51;;;;;;;0.55;0.55;;;17.20;99.90;;;;;;5011468;28;20553;-66
2023/10/13 09:25:35;;;;;;;1.17;1.08;;;17.40;99.90;;;;;;5001750;28;20124;-66
2023/10/13 09:28:15;;;;;;;0.05;0.05;;;17.50;99.90;;;;;;5004899;28;20498;-67
2023/10/13 09:31:01;;;;;;;1.85;1.75;;;17.60;99.90;;;;;;4998422;28;20050;-66
2023/10/13 09:33:47;;;;;;;0.77;0.65;;;17.70;99.90;;;;;;5002166;28;20053;-66
2023/10/13 09:36:16;;;;;;;2.80;2.40;;;17.70;99.90;;;;;;4997617;28;20054;-67
2023/10/13 09:38:48;;;;;;;1.40;0.90;;;17.80;99.90;;;;;;5009456;28;20661;-66
2023/10/13 09:41:26;;;;;;;0.00;0.00;;;17.80;99.90;;;;;;4995421;28;20092;-66
2023/10/13 09:43:52;;;;;;;1.33;1.15;;;17.90;99.90;;;;;;5023173;28;20494;-65
2023/10/13 09:46:26;;;;;;;1.23;1.13;;;17.90;99.90;;;;;;4998017;28;20042;-66
2023/10/13 09:49:08;;;;;;;1.27;1.17;;;18.00;99.90;;;;;;5005351;28;20641;-65
2023/10/13 09:51:33;;;;;;;1.88;1.75;;;18.10;99.90;;;;;;5009552;28;20490;-66
2023/10/13 09:54:17;;;;;;;0.08;0.08;;;18.10;99.90;;;;;;5016487;28;20065;-65
2023/10/13 09:56:52;;;;;;;0.98;0.98;;;18.10;99.90;;;;;;5002346;28;20100;-66
2023/10/13 09:59:35;;;;;;;0.35;0.35;;;18.20;99.90;;;;;;5008908;28;20054;-66
2023/10/13 10:02:18;;;;;;;3.35;1.15;;;18.20;99.90;;;;;;5008085;28;20050;-66
2023/10/13 10:04:51;;;;;;;1.95;0.98;;;18.20;99.90;;;;;;5006912;28;20564;-66
2023/10/13 10:07:28;;;;;;;0.32;0.32;;;18.30;99.90;;;;;;4998454;28;20049;-66
2023/10/13 10:09:58;;;;;;;3.50;2.83;;;18.30;99.90;;;;;;5009131;28;20482;-66
2023/10/13 10:12:47;;;;;;;1.38;1.27;;;18.20;99.90;;;;;;5001886;28;20498;-67
2023/10/13 10:15:35;;;;;;;2.83;1.65;;;18.30;99.90;;;;;;5001512;28;20053;-66
2023/10/13 10:18:04;;;;;;;0.10;0.10;;;18.40;99.90;;;;;;5006836;28;20561;-66
2023/10/13 10:20:47;;;;;;;0.00;0.00;;;18.50;99.90;;;;;;5009287;28;20038;-66
2023/10/13 10:23:25;;;;;;;1.42;0.80;;;18.60;99.90;;;;;;5002490;28;20056;-66
2023/10/13 10:25:51;;;;;;;0.03;0.03;;;18.60;99.90;;;;;;5001434;28;20056;-66
2023/10/13 10:28:19;;;;;;;0.15;0.15;;;18.70;99.90;;;;;;4995129;28;20042;-66
2023/10/13 10:30:44;;;;;;;0.98;0.98;;;18.70;99.90;;;;;;5007362;28;20046;-66
2023/10/13 10:33:18;;;;;;;1.00;0.95;;;18.70;99.90;;;;;;4999317;28;20056;-65
2023/10/13 10:35:46;;;;;;;0.20;0.20;;;18.80;99.90;;;;;;5007920;28;20038;-65
2023/10/13 10:40:58;;;;;;;1.13;0.98;;;18.90;99.90;;;;;;5007017;28;20049;-65
2023/10/13 10:43:27;;;;;;;3.67;0.63;;;18.80;99.90;;;;;;5000208;28;20486;-66
2023/10/13 10:45:59;;;;;;;8.30;2.05;;;18.90;99.90;;;;;;5000701;28;20054;-66
2023/10/13 10:48:31;;;;;;;0.40;0.38;;;18.90;99.90;;;;;;5004550;28;20054;-65
2023/10/13 10:50:58;;;;;;;0.85;0.85;;;18.80;99.90;;;;;;5006802;28;20046;-66
2023/10/13 10:53:35;;;;;;;0.93;0.93;;;18.90;99.90;;;;;;5003323;28;20086;-65
2023/10/13 10:56:19;;;;;;;4.28;1.30;;;19.00;99.90;;;;;;5002908;28;20045;-66
2023/10/13 10:58:46;;;;;;;1.05;0.80;;;19.10;99.90;;;;;;5003851;28;20121;-65
2023/10/13 11:01:18;;;;;;;2.05;1.10;;;19.00;99.90;;;;;;5003073;28;20046;-65
2023/10/13 11:04:14;;;;;;;0.17;0.17;;;19.10;99.90;;;;;;5005260;28;20057;-65
2023/10/13 11:06:46;;;;;;;0.20;0.20;;;19.10;99.90;;;;;;5001292;28;20143;-65
2023/10/13 11:11:53;;;;;;;1.73;0.35;;;19.10;99.90;;;;;;5001978;28;20072;-65
2023/10/13 11:14:28;;;;;;;0.35;0.35;;;19.00;99.90;;;;;;5021666;28;20494;-65
2023/10/13 11:17:04;;;;;;;0.30;0.30;;;19.00;99.90;;;;;;5008899;28;20129;-66
2023/10/13 11:19:43;;;;;;;1.67;0.73;;;19.00;99.90;;;;;;4996803;28;20048;-66
2023/10/13 11:22:42;;;;;;;0.65;0.65;;;19.00;99.90;;;;;;4999086;28;20046;-65
2023/10/13 11:25:11;;;;;;;0.10;0.10;;;19.00;99.90;;;;;;5004340;28;20046;-65
2023/10/13 11:30:19;;;;;;;0.52;0.43;;;19.10;99.90;;;;;;5000365;28;20069;-65
2023/10/13 11:33:05;;;;;;;2.40;2.20;;;19.10;99.90;;;;;;4993466;28;20104;-65
2023/10/13 11:35:53;;;;;;;0.10;0.10;;;19.10;99.90;;;;;;5009364;28;20046;-66
2023/10/13 11:38:26;;;;;;;1.17;1.08;;;19.00;99.90;;;;;;4998972;28;20709;-65
2023/10/13 11:43:44;;;;;;;0.73;0.73;;;18.70;99.90;;;;;;5007793;28;20064;-66
2023/10/13 11:48:41;;;;;;;5.50;1.40;;;18.30;99.90;;;;;;5002078;28;20042;-66
2023/10/13 11:51:09;;;;;;;0.03;0.03;;;18.00;99.90;;;;;;5007737;28;20448;-66
2023/10/13 11:53:35;;;;;;;0.22;0.22;;;17.90;99.90;;;;;;5009286;28;20162;-68
2023/10/13 11:56:08;;;;;;;0.47;0.35;;;17.70;99.90;;;;;;5000067;28;20137;-67
2023/10/13 11:58:37;;;;;;;5.63;3.53;;;17.70;99.90;;;;;;5007031;28;20176;-67
2023/10/13 12:06:33;;;;;;;0.52;0.52;;;17.60;99.90;;;;;;5007727;28;20120;-66
2023/10/13 12:09:13;;;;;;;0.25;0.25;;;17.60;99.90;;;;;;4997991;28;20520;-66
2023/10/13 12:11:41;;;;;;;0.20;0.20;;;17.70;99.90;;;;;;5005936;28;20042;-66
2023/10/13 12:14:29;;;;;;;0.85;0.85;;;17.70;99.90;;;;;;5009457;28;20053;-66
2023/10/13 12:16:55;;;;;;;0.75;0.75;;;17.70;99.90;;;;;;5005843;28;20037;-66
2023/10/13 12:19:27;;;;;;;4.03;0.82;;;17.80;99.90;;;;;;5002246;28;20176;-66
2023/10/13 12:21:57;;;;;;;0.10;0.10;;;17.80;99.90;;;;;;5003674;28;20061;-66
2023/10/13 12:27:18;;;;;;;6.50;0.85;;;17.70;99.90;;;;;;5003912;28;20046;-67
2023/10/13 12:29:53;;;;;;;2.03;1.25;;;17.60;99.90;;;;;;5002655;28;20069;-67
2023/10/13 12:32:23;;;;;;;0.75;0.75;;;17.60;99.90;;;;;;4997670;28;20079;-67
2023/10/13 12:56:46;;;;;;;0.40;0.38;;;17.50;99.90;;;;;;5005470;28;20047;-67
2023/10/13 12:59:15;;;;;;;1.13;1.08;;;17.50;99.90;;;;;;5006709;28;20462;-66
2023/10/13 13:01:42;;;;;;;0.28;0.28;;;17.50;99.90;;;;;;5007590;28;20123;-67
2023/10/13 13:04:18;;;;;;;0.20;0.20;;;17.50;99.90;;;;;;5002573;28;20116;-67
2023/10/13 13:06:44;;;;;;;1.00;1.00;;;17.50;99.90;;;;;;5009166;28;20049;-68
2023/10/13 13:09:09;;;;;;;2.25;2.10;;;17.50;99.90;;;;;;5001342;28;20046;-68
2023/10/13 13:11:41;;;;;;;1.52;0.93;;;17.50;99.90;;;;;;5001229;28;20054;-67
2023/10/13 13:14:08;;;;;;;0.85;0.85;;;17.50;99.90;;;;;;5008636;28;20052;-67
2023/10/13 13:16:34;;;;;;;1.75;1.65;;;17.50;99.90;;;;;;5003733;28;20136;-66
2023/10/13 13:19:09;;;;;;;1.65;1.38;;;17.50;99.90;;;;;;5009545;28;20084;-67
2023/10/13 13:21:38;;;;;;;0.20;0.20;;;17.50;99.90;;;;;;5001012;28;20081;-68
2023/10/13 13:24:10;;;;;;;0.50;0.50;;;17.50;99.90;;;;;;5006013;28;20054;-68
2023/10/13 13:26:42;;;;;;;20.17;0.73;;;17.40;99.90;;;;;;5002190;28;20160;-68
2023/10/13 13:29:10;;;;;;;1.25;0.98;;;17.50;99.90;;;;;;5009105;28;20053;-67
2023/10/13 13:31:41;;;;;;;4.10;0.63;;;17.50;99.90;;;;;;5001384;28;20050;-67
2023/10/13 13:34:12;;;;;;;0.73;0.57;;;17.50;99.90;;;;;;5002726;28;20041;-67
2023/10/13 13:36:38;;;;;;;1.38;1.27;;;17.50;99.90;;;;;;5007023;28;20403;-66
2023/10/13 13:39:05;;;;;;;0.13;0.13;;;17.50;99.90;;;;;;5004319;28;20049;-67
2023/10/13 13:41:33;;;;;;;1.00;0.77;;;17.50;99.90;;;;;;5002387;28;20073;-66
2023/10/13 13:44:12;;;;;;;17.25;4.28;;;17.60;99.90;;;;;;4998217;28;20049;-67
2023/10/13 13:46:41;;;;;;;0.90;0.90;;;17.60;99.90;;;;;;4999942;28;20038;-65
2023/10/13 13:49:07;;;;;;;0.22;0.22;;;17.70;99.90;;;;;;5007478;28;20050;-66
2023/10/13 13:51:33;;;;;;;0.25;0.25;;;17.70;99.90;;;;;;5006364;28;20388;-66
2023/10/13 13:53:59;;;;;;;1.08;0.98;;;17.70;99.90;;;;;;4996960;28;20046;-66
2023/10/13 13:56:27;;;;;;;2.22;1.58;;;17.80;99.90;;;;;;5003062;28;20100;-67
2023/10/13 13:58:54;;;;;;;1.48;1.25;;;17.80;99.90;;;;;;5008743;28;20069;-67
2023/10/13 14:01:26;;;;;;;1.27;1.20;;;17.90;99.90;;;;;;5005548;28;20074;-67
2023/10/13 14:03:56;;;;;;;1.77;1.63;;;17.90;99.90;;;;;;5003924;28;20038;-66
2023/10/13 14:06:24;;;;;;;0.28;0.20;;;17.90;99.90;;;;;;5000708;28;20529;-67
2023/10/13 14:08:54;;;;;;;3.03;1.80;;;18.00;99.90;;;;;;5004514;28;20054;-67
2023/10/13 14:16:50;;;;;;;1.02;1.00;;;18.00;99.90;;;;;;5001137;28;20057;-67
2023/10/13 14:19:26;;;;;;;0.80;0.80;;;18.00;99.90;;;;;;4997406;28;20398;-68
2023/10/13 14:21:55;;;;;;;1.55;1.45;;;18.00;99.90;;;;;;4996619;28;20049;-67
2023/10/13 14:24:43;;;;;;;4.65;1.27;;;18.00;99.90;;;;;;5005543;28;20045;-67
2023/10/13 14:27:08;;;;;;;0.52;0.45;;;18.10;99.90;;;;;;5009223;28;20060;-66
2023/10/13 14:29:39;;;;;;;0.40;0.40;;;18.10;99.90;;;;;;5000862;28;20495;-66
2023/10/13 14:32:06;;;;;;;1.85;0.95;;;18.20;99.90;;;;;;5003063;28;20046;-66
2023/10/13 14:34:35;;;;;;;0.63;0.30;;;18.20;99.90;;;;;;5005520;28;20064;-66
2023/10/13 14:37:00;;;;;;;4.25;2.05;;;18.30;99.90;;;;;;4997434;28;20116;-66
2023/10/13 14:39:29;;;;;;;4.45;3.45;;;18.20;99.90;;;;;;5001414;28;20438;-66
2023/10/13 14:41:55;;;;;;;0.77;0.77;;;18.30;99.90;;;;;;4997054;28;20042;-66
2023/10/13 14:44:26;;;;;;;1.90;0.95;;;18.30;99.90;;;;;;5000037;28;20057;-67
2023/10/13 14:46:54;;;;;;;0.20;0.20;;;18.30;99.90;;;;;;5003750;28;20769;-66
2023/10/13 14:49:20;;;;;;;0.10;0.10;;;18.30;99.90;;;;;;5008136;28;20037;-66
2023/10/13 14:51:46;;;;;;;1.35;1.25;;;18.30;99.90;;;;;;5002531;28;20092;-66
2023/10/13 14:54:14;;;;;;;1.02;0.75;;;18.30;99.90;;;;;;4996912;28;20041;-66
2023/10/13 14:56:42;;;;;;;0.55;0.55;;;18.30;99.90;;;;;;5008772;28;20073;-66
2023/10/13 14:59:14;;;;;;;2.45;1.95;;;18.30;99.90;;;;;;5006897;28;20486;-66
2023/10/13 15:01:40;;;;;;;8.32;2.45;;;18.40;99.90;;;;;;4996980;28;20058;-67
2023/10/13 15:04:06;;;;;;;0.38;0.38;;;18.40;99.90;;;;;;5001956;28;20042;-65
2023/10/13 15:06:32;;;;;;;2.38;1.40;;;18.40;99.90;;;;;;5006264;28;20124;-66
2023/10/13 15:08:59;;;;;;;1.20;1.10;;;18.40;99.90;;;;;;5004417;28;20045;-66
2023/10/13 15:11:38;;;;;;;0.90;0.80;;;18.50;99.90;;;;;;4993748;28;20042;-66
2023/10/13 15:14:06;;;;;;;1.88;1.33;;;18.50;99.90;;;;;;5000720;28;20050;-66
2023/10/13 15:16:33;;;;;;;3.22;1.88;;;18.50;99.90;;;;;;5003358;28;20387;-66
2023/10/13 15:18:59;;;;;;;3.80;2.05;;;18.50;99.90;;;;;;5012525;28;20085;-66
2023/10/13 15:21:34;;;;;;;1.55;1.13;;;18.50;99.90;;;;;;5007806;28;20156;-66
2023/10/13 15:24:03;;;;;;;0.90;0.90;;;18.50;99.90;;;;;;4998646;28;20054;-67
2023/10/13 15:26:37;;;;;;;0.47;0.47;;;18.50;99.90;;;;;;5003153;28;20066;-66
2023/10/13 15:29:08;;;;;;;2.25;2.05;;;18.50;99.90;;;;;;5001171;28;20066;-66
2023/10/13 15:34:12;;;;;;;1.98;1.73;;;18.50;99.90;;;;;;5005174;28;20099;-66
2023/10/13 15:36:42;;;;;;;4.90;3.72;;;18.50;99.90;;;;;;5003175;28;20041;-67
2023/10/13 15:39:10;;;;;;;0.43;0.43;;;18.50;99.90;;;;;;5000408;28;20057;-67
2023/10/13 15:41:37;;;;;;;0.00;0.00;;;18.60;99.90;;;;;;4992580;28;20085;-67
2023/10/13 15:44:09;;;;;;;3.10;0.90;;;18.60;99.90;;;;;;5006004;28;20058;-66
2023/10/13 15:46:35;;;;;;;2.22;2.03;;;18.60;99.90;;;;;;4997682;28;20046;-67
2023/10/13 15:49:02;;;;;;;0.10;0.10;;;18.60;99.90;;;;;;5001742;28;21279;-66
2023/10/13 15:51:29;;;;;;;30.25;3.58;;;18.60;99.90;;;;;;5002841;28;20462;-66
2023/10/13 15:53:55;;;;;;;0.52;0.45;;;18.60;99.90;;;;;;5005673;28;20486;-66
2023/10/13 15:56:21;;;;;;;3.60;3.25;;;18.50;99.90;;;;;;5005618;28;20073;-67
2023/10/13 15:58:47;;;;;;;7.57;2.90;;;18.50;99.90;;;;;;5003547;28;20089;-66
2023/10/13 16:01:13;;;;;;;0.45;0.45;;;18.50;99.90;;;;;;4997547;28;20417;-66
2023/10/13 16:03:43;;;;;;;0.47;0.47;;;18.50;99.90;;;;;;5005327;28;20050;-66
2023/10/13 16:06:10;;;;;;;5.47;2.58;;;18.50;99.90;;;;;;4999542;28;20046;-67
2023/10/13 16:08:42;;;;;;;0.50;0.50;;;18.50;99.90;;;;;;5002364;28;20041;-67
2023/10/13 16:11:17;;;;;;;0.27;0.27;;;18.40;99.90;;;;;;5007653;28;20041;-67
2023/10/13 16:13:51;;;;;;;0.75;0.75;;;18.40;99.90;;;;;;5002590;28;20448;-66
2023/10/13 16:16:24;;;;;;;1.00;0.85;;;18.40;99.90;;;;;;5005382;28;20046;-66
2023/10/13 16:18:52;;;;;;;27.33;1.48;;;18.40;99.90;;;;;;5008819;28;20077;-66
2023/10/13 16:21:19;;;;;;;2.30;2.13;;;18.30;99.90;;;;;;5012469;28;20069;-65
2023/10/13 16:23:48;;;;;;;1.77;1.67;;;18.30;99.90;;;;;;5001824;28;20042;-66
2023/10/13 16:26:21;;;;;;;0.98;0.93;;;18.30;99.90;;;;;;5001772;28;20042;-65
2023/10/13 16:28:48;;;;;;;0.57;0.57;;;18.30;99.90;;;;;;5002169;28;20542;-66
2023/10/13 16:31:13;;;;;;;0.73;0.73;;;18.20;99.90;;;;;;5003660;28;20050;-66
2023/10/13 16:33:42;;;;;;;0.90;0.85;;;18.20;99.90;;;;;;5001135;28;20101;-66
2023/10/13 16:36:10;;;;;;;7.32;2.15;;;18.20;99.90;;;;;;5006880;28;20050;-66
2023/10/13 16:38:39;;;;;;;0.20;0.20;;;18.10;99.90;;;;;;5026606;28;20046;-66
2023/10/13 16:41:09;;;;;;;1.88;1.27;;;18.10;99.90;;;;;;5003355;28;20467;-66
2023/10/13 16:43:35;;;;;;;0.68;0.68;;;18.10;99.90;;;;;;5009151;28;20516;-66
2023/10/13 16:46:06;;;;;;;0.28;0.28;;;18.10;99.90;;;;;;5009463;28;20440;-66
2023/10/13 16:48:34;;;;;;;3.75;0.82;;;18.10;99.90;;;;;;5010773;28;20053;-66
2023/10/13 16:51:00;;;;;;;0.50;0.50;;;18.00;99.90;;;;;;5003945;28;20041;-66
2023/10/13 16:53:27;;;;;;;0.20;0.20;;;18.10;99.90;;;;;;5007002;28;20038;-66
2023/10/13 16:55:53;;;;;;;0.30;0.30;;;18.10;99.90;;;;;;5012457;28;20548;-66
2023/10/13 16:58:19;;;;;;;1.77;1.63;;;18.10;99.90;;;;;;5002161;28;20054;-66
2023/10/13 17:00:51;;;;;;;11.20;1.38;;;18.10;99.90;;;;;;5007959;28;20033;-66
2023/10/13 17:03:17;;;;;;;2.45;1.70;;;18.10;99.90;;;;;;4995489;28;20045;-67
2023/10/13 17:05:43;;;;;;;3.25;1.65;;;18.10;99.90;;;;;;5002816;28;20103;-67
2023/10/13 17:08:09;;;;;;;1.55;1.17;;;18.10;99.90;;;;;;5004619;28;20444;-68
2023/10/13 17:10:36;;;;;;;1.77;1.23;;;18.10;99.90;;;;;;5001362;28;20105;-66
2023/10/13 17:13:04;;;;;;;3.97;2.17;;;18.20;99.90;;;;;;5006278;28;20481;-67